createdAt,value
2022-11-09T00:00:04.458Z,6.33
2022-11-09T00:02:43.839Z,6.54
2022-11-09T00:05:19.006Z,6.21
2022-11-09T00:07:48.463Z,6.28
2022-11-09T00:10:29.639Z,6.29
2022-11-09T00:12:58.864Z,6.34
2022-11-09T00:15:28.677Z,6.11
2022-11-09T00:17:59.921Z,6.31
2022-11-09T00:20:44.484Z,6.00
2022-11-09T00:23:17.337Z,5.96
2022-11-09T00:25:50.677Z,6.29
2022-11-09T00:28:43.125Z,6.07
2022-11-09T00:31:17.656Z,6.07
2022-11-09T00:33:53.475Z,6.34
2022-11-09T00:36:23.327Z,6.38
2022-11-09T00:39:01.805Z,6.31
2022-11-09T00:41:31.935Z,6.16
2022-11-09T00:43:59.161Z,6.29
2022-11-09T00:46:37.162Z,6.18
2022-11-09T00:49:06.505Z,6.17
2022-11-09T00:51:34.681Z,6.40
2022-11-09T00:54:03.982Z,6.49
2022-11-09T00:56:31.082Z,6.51
2022-11-09T00:58:58.221Z,6.54
2022-11-09T01:01:28.537Z,6.58
2022-11-09T01:03:56.729Z,6.31
2022-11-09T01:06:26.380Z,6.57
2022-11-09T01:08:55.503Z,6.44
2022-11-09T01:11:25.815Z,6.48
2022-11-09T01:13:59.519Z,6.59
2022-11-09T01:16:26.447Z,6.50
2022-11-09T01:19:00.209Z,6.73
2022-11-09T01:21:29.552Z,6.53
2022-11-09T01:23:59.611Z,6.54
2022-11-09T01:26:26.607Z,6.48
2022-11-09T01:28:56.586Z,6.73
2022-11-09T01:31:26.140Z,6.62
2022-11-09T01:33:53.160Z,6.40
2022-11-09T01:36:23.129Z,6.44
2022-11-09T01:38:51.566Z,6.40
2022-11-09T01:41:24.021Z,6.66
2022-11-09T01:44:11.622Z,6.34
2022-11-09T01:46:53.005Z,6.65
2022-11-09T01:50:00.175Z,6.65
2022-11-09T01:52:36.105Z,6.65
2022-11-09T01:55:19.776Z,6.67
2022-11-09T01:58:04.260Z,6.71
2022-11-09T02:00:31.581Z,6.60
2022-11-09T02:03:02.912Z,6.71
2022-11-09T02:05:31.323Z,6.58
2022-11-09T02:08:01.618Z,6.55
2022-11-09T02:10:48.485Z,6.42
2022-11-09T02:13:20.179Z,6.64
2022-11-09T02:15:49.382Z,6.76
2022-11-09T02:18:17.073Z,6.51
2022-11-09T02:20:51.685Z,6.85
2022-11-09T02:23:22.256Z,6.78
2022-11-09T02:25:56.681Z,6.63
2022-11-09T02:28:25.876Z,6.63
2022-11-09T02:30:57.463Z,6.47
2022-11-09T02:33:26.308Z,6.63
2022-11-09T02:35:53.505Z,6.78
2022-11-09T02:38:29.569Z,6.41
2022-11-09T02:40:57.702Z,6.82
2022-11-09T02:43:24.583Z,6.71
2022-11-09T02:45:54.880Z,6.74
2022-11-09T02:48:21.758Z,6.81
2022-11-09T02:50:48.780Z,6.86
2022-11-09T02:53:19.088Z,6.47
2022-11-09T02:55:46.180Z,6.77
2022-11-09T02:58:13.032Z,6.43
2022-11-09T03:00:40.056Z,6.69
2022-11-09T03:03:09.977Z,6.75
2022-11-09T03:05:39.061Z,6.44
2022-11-09T03:08:08.338Z,6.44
2022-11-09T03:10:41.123Z,6.64
2022-11-09T03:13:14.333Z,6.78
2022-11-09T03:15:50.304Z,6.79
2022-11-09T03:18:20.080Z,6.58
2022-11-09T03:20:52.675Z,6.56
2022-11-09T03:23:22.098Z,6.56
2022-11-09T03:25:52.779Z,6.60
2022-11-09T03:28:19.968Z,6.50
2022-11-09T03:30:47.459Z,6.69
2022-11-09T03:33:14.681Z,6.84
2022-11-09T03:35:49.315Z,6.59
2022-11-09T03:38:16.300Z,6.57
2022-11-09T03:40:43.186Z,6.50
2022-11-09T03:43:12.722Z,6.85
2022-11-09T03:45:41.160Z,6.45
2022-11-09T03:48:10.790Z,6.80
2022-11-09T03:50:46.480Z,6.74
2022-11-09T03:53:17.044Z,6.47
2022-11-09T03:56:03.595Z,6.62
2022-11-09T03:58:33.426Z,6.60
2022-11-09T04:01:00.282Z,6.77
2022-11-09T04:03:30.860Z,6.57
2022-11-09T04:06:06.279Z,6.75
2022-11-09T04:08:33.079Z,6.69
2022-11-09T04:11:00.122Z,6.62
2022-11-09T04:13:31.934Z,6.65
2022-11-09T04:15:58.921Z,6.43
2022-11-09T04:18:33.800Z,6.30
2022-11-09T04:21:03.080Z,6.52
2022-11-09T04:23:34.162Z,6.21
2022-11-09T04:26:04.125Z,6.42
2022-11-09T04:28:33.840Z,6.45
2022-11-09T04:31:04.041Z,6.55
2022-11-09T04:33:38.145Z,6.48
2022-11-09T04:36:16.423Z,6.59
2022-11-09T04:38:46.362Z,6.20
2022-11-09T04:41:13.541Z,6.60
2022-11-09T04:43:44.644Z,6.75
2022-11-09T04:46:17.627Z,6.69
2022-11-09T04:48:47.326Z,6.54
2022-11-09T04:51:17.202Z,6.50
2022-11-09T04:53:50.920Z,6.64
2022-11-09T04:56:20.909Z,6.75
2022-11-09T04:58:49.922Z,7.01
2022-11-09T05:01:22.529Z,6.65
2022-11-09T05:03:55.512Z,7.00
2022-11-09T05:06:36.237Z,6.70
2022-11-09T05:11:59.602Z,6.54
2022-11-09T05:14:29.253Z,6.77
2022-11-09T05:16:56.365Z,6.57
2022-11-09T05:19:30.007Z,6.57
2022-11-09T05:22:16.865Z,6.29
2022-11-09T05:24:48.633Z,6.54
2022-11-09T05:27:20.440Z,6.42
2022-11-09T05:29:50.561Z,6.15
2022-11-09T05:32:17.459Z,6.11
2022-11-09T05:34:56.500Z,6.05
2022-11-09T05:37:24.903Z,6.10
2022-11-09T05:39:57.049Z,6.30
2022-11-09T05:42:25.081Z,6.24
2022-11-09T05:44:55.894Z,6.10
2022-11-09T05:47:28.463Z,6.18
2022-11-09T05:49:55.483Z,5.81
2022-11-09T05:52:23.663Z,6.16
2022-11-09T05:54:50.522Z,5.83
2022-11-09T05:57:18.702Z,6.25
2022-11-09T05:59:52.379Z,6.18
2022-11-09T06:02:24.244Z,6.30
2022-11-09T06:04:51.447Z,6.30
2022-11-09T06:07:18.406Z,6.16
2022-11-09T06:09:45.529Z,6.55
2022-11-09T06:12:12.639Z,6.31
2022-11-09T06:14:39.537Z,6.41
2022-11-09T06:17:09.281Z,6.75
2022-11-09T06:19:36.246Z,6.57
2022-11-09T06:22:10.663Z,6.83
2022-11-09T06:24:37.658Z,6.68
2022-11-09T06:27:04.780Z,6.90
2022-11-09T06:29:34.508Z,6.85
2022-11-09T06:32:01.416Z,6.54
2022-11-09T06:34:38.820Z,6.80
2022-11-09T06:37:08.428Z,6.84
2022-11-09T06:39:41.061Z,6.85
2022-11-09T06:42:09.300Z,6.78
2022-11-09T06:44:36.342Z,6.69
2022-11-09T06:47:06.383Z,6.73
2022-11-09T06:49:34.552Z,6.89
2022-11-09T06:52:04.075Z,7.00
2022-11-09T06:54:40.103Z,6.88
2022-11-09T06:57:09.402Z,6.92
2022-11-09T06:59:36.473Z,7.02
2022-11-09T07:02:03.372Z,7.07
2022-11-09T07:04:35.018Z,7.39
2022-11-09T07:07:04.297Z,7.29
2022-11-09T07:09:36.728Z,7.49
2022-11-09T07:12:05.985Z,7.50
2022-11-09T07:14:33.145Z,7.38
2022-11-09T07:17:02.031Z,7.52
2022-11-09T07:19:38.766Z,7.58
2022-11-09T07:22:07.521Z,7.15
2022-11-09T07:24:40.183Z,7.37
2022-11-09T07:27:09.982Z,7.02
2022-11-09T07:29:44.383Z,6.98
2022-11-09T07:32:11.324Z,7.14
2022-11-09T07:34:38.389Z,7.18
2022-11-09T07:37:05.330Z,7.28
2022-11-09T07:39:39.661Z,7.77
2022-11-09T07:42:12.507Z,7.84
2022-11-09T07:44:47.795Z,8.02
2022-11-09T07:47:22.950Z,8.07
2022-11-09T07:49:52.109Z,8.26
2022-11-09T07:52:31.103Z,8.55
2022-11-09T07:55:01.228Z,8.39
2022-11-09T07:57:30.224Z,8.46
2022-11-09T08:00:02.442Z,8.76
2022-11-09T08:02:34.177Z,9.29
2022-11-09T08:05:03.862Z,9.90
2022-11-09T08:07:33.797Z,10.02
2022-11-09T08:10:05.659Z,10.72
2022-11-09T08:12:36.854Z,10.74
2022-11-09T08:15:10.934Z,11.28
2022-11-09T08:17:43.538Z,11.46
2022-11-09T08:20:15.839Z,11.88
2022-11-09T08:22:46.140Z,12.07
2022-11-09T08:25:18.783Z,12.51
2022-11-09T08:27:48.443Z,12.57
2022-11-09T08:30:20.684Z,13.06
2022-11-09T08:32:53.663Z,13.48
2022-11-09T08:35:22.121Z,14.34
2022-11-09T08:37:58.101Z,14.83
2022-11-09T08:40:30.864Z,15.46
2022-11-09T08:45:47.555Z,15.45
2022-11-09T08:48:16.547Z,14.68
2022-11-09T08:50:46.340Z,14.40
2022-11-09T08:53:13.432Z,14.46
2022-11-09T08:55:47.035Z,14.42
2022-11-09T08:58:22.127Z,14.41
2022-11-09T09:00:55.082Z,14.83
2022-11-09T09:03:26.962Z,15.68
2022-11-09T09:05:53.977Z,16.62
2022-11-09T09:08:23.876Z,17.15
2022-11-09T09:10:51.226Z,17.61
2022-11-09T09:13:19.660Z,18.13
2022-11-09T09:15:46.565Z,18.38
2022-11-09T09:18:16.819Z,17.95
2022-11-09T09:20:43.785Z,17.78
2022-11-09T09:23:12.802Z,17.12
2022-11-09T09:25:39.703Z,17.06
2022-11-09T09:28:06.746Z,16.88
2022-11-09T09:30:33.943Z,17.06
2022-11-09T09:33:04.054Z,17.79
2022-11-09T09:35:30.904Z,18.55
2022-11-09T09:37:58.480Z,18.53
2022-11-09T09:40:32.204Z,18.35
2022-11-09T09:42:59.120Z,17.99
2022-11-09T09:45:32.069Z,17.86
2022-11-09T09:48:30.454Z,18.01
2022-11-09T09:51:04.801Z,17.41
2022-11-09T09:53:38.272Z,17.21
2022-11-09T09:56:07.141Z,17.06
2022-11-09T09:58:35.022Z,17.06
2022-11-09T10:01:23.120Z,16.99
2022-11-09T10:03:50.180Z,16.54
2022-11-09T10:06:31.007Z,16.58
2022-11-09T10:09:00.875Z,16.41
2022-11-09T10:11:46.324Z,16.37
2022-11-09T10:14:34.821Z,16.39
2022-11-09T10:17:41.776Z,16.55
2022-11-09T10:20:27.507Z,16.60
2022-11-09T10:23:30.865Z,16.70
2022-11-09T10:26:21.965Z,16.80
2022-11-09T10:31:43.111Z,16.42
2022-11-09T10:34:36.418Z,16.68
2022-11-09T10:37:28.959Z,16.65
2022-11-09T10:40:01.206Z,16.53
2022-11-09T10:42:28.040Z,16.51
2022-11-09T10:44:55.101Z,16.58
2022-11-09T10:47:23.105Z,16.66
2022-11-09T10:50:24.919Z,16.66
2022-11-09T10:52:51.901Z,16.51
2022-11-09T10:55:31.916Z,16.42
2022-11-09T10:58:02.625Z,16.49
2022-11-09T11:00:29.499Z,16.30
2022-11-09T11:02:56.620Z,16.26
2022-11-09T11:05:28.675Z,16.11
2022-11-09T11:07:55.742Z,15.81
2022-11-09T11:10:22.996Z,15.72
2022-11-09T11:13:08.500Z,15.56
2022-11-09T11:15:39.696Z,15.21
2022-11-09T11:18:23.750Z,15.08
2022-11-09T11:21:18.695Z,15.09
2022-11-09T11:23:45.944Z,14.71
2022-11-09T11:26:40.933Z,14.86
2022-11-09T11:29:28.884Z,14.70
2022-11-09T11:31:55.885Z,14.56
2022-11-09T11:34:53.453Z,14.30
2022-11-09T11:37:35.645Z,14.17
2022-11-09T11:40:09.082Z,14.23
2022-11-09T11:43:13.680Z,14.43
2022-11-09T11:46:09.793Z,14.18
2022-11-09T11:49:08.484Z,14.16
2022-11-09T11:51:56.301Z,14.22
2022-11-09T11:54:39.154Z,13.90
2022-11-09T11:57:32.582Z,13.67
2022-11-09T12:00:03.934Z,13.70
2022-11-09T12:02:46.375Z,13.37
2022-11-09T12:05:41.306Z,13.16
2022-11-09T12:08:23.314Z,13.23
2022-11-09T12:11:21.042Z,13.08
2022-11-09T12:14:29.077Z,12.63
2022-11-09T12:17:07.301Z,12.52
2022-11-09T12:20:05.939Z,12.26
2022-11-09T12:23:02.735Z,12.01
2022-11-09T12:25:35.364Z,12.12
2022-11-09T12:28:27.958Z,12.07
2022-11-09T12:31:19.093Z,11.97
2022-11-09T12:33:52.265Z,11.74
2022-11-09T12:36:37.139Z,11.40
2022-11-09T12:39:36.297Z,11.51
2022-11-09T12:42:14.459Z,11.56
2022-11-09T12:45:13.186Z,11.26
2022-11-09T12:47:48.902Z,11.23
2022-11-09T12:50:19.287Z,11.45
2022-11-09T12:52:47.776Z,11.22
2022-11-09T12:55:16.089Z,11.49
2022-11-09T12:57:45.536Z,11.40
2022-11-09T13:00:37.459Z,11.42
2022-11-09T13:03:08.186Z,11.31
2022-11-09T13:05:37.786Z,11.01
2022-11-09T13:08:17.898Z,11.10
2022-11-09T13:10:45.938Z,11.12
2022-11-09T13:13:13.581Z,11.31
2022-11-09T13:16:17.664Z,11.29
2022-11-09T13:18:45.725Z,11.25
2022-11-09T13:21:21.863Z,11.24
2022-11-09T13:24:02.313Z,10.95
2022-11-09T13:26:54.799Z,10.81
2022-11-09T13:29:22.698Z,11.17
2022-11-09T13:32:08.899Z,11.08
2022-11-09T13:34:53.392Z,11.02
2022-11-09T13:37:41.947Z,11.11
2022-11-09T13:40:36.541Z,11.09
2022-11-09T13:43:16.319Z,10.84
2022-11-09T13:45:46.493Z,10.98
2022-11-09T13:48:44.066Z,11.05
2022-11-09T13:51:21.259Z,11.05
2022-11-09T13:54:03.792Z,11.06
2022-11-09T13:56:33.299Z,11.06
2022-11-09T13:59:15.538Z,10.69
2022-11-09T14:01:50.603Z,10.79
2022-11-09T14:04:28.881Z,10.83
2022-11-09T14:07:27.362Z,10.98
2022-11-09T14:09:58.332Z,10.96
2022-11-09T14:12:43.873Z,10.91
2022-11-09T14:15:47.837Z,10.88
2022-11-09T14:18:21.219Z,10.62
2022-11-09T14:20:52.401Z,10.63
2022-11-09T14:23:23.921Z,10.48
2022-11-09T14:25:52.900Z,10.40
2022-11-09T14:28:29.800Z,10.55
2022-11-09T14:31:02.878Z,10.45
2022-11-09T14:33:35.727Z,10.63
2022-11-09T14:36:06.184Z,10.46
2022-11-09T14:38:48.999Z,10.43
2022-11-09T14:41:22.581Z,10.30
2022-11-09T14:43:51.370Z,10.48
2022-11-09T14:46:23.762Z,10.46
2022-11-09T14:48:54.742Z,10.38
2022-11-09T14:51:32.492Z,10.25
2022-11-09T14:54:03.121Z,10.33
2022-11-09T14:56:30.642Z,10.12
2022-11-09T14:58:57.779Z,10.20
2022-11-09T15:01:26.117Z,9.93
2022-11-09T15:04:23.991Z,10.25
2022-11-09T15:06:52.842Z,9.93
2022-11-09T15:09:25.006Z,9.88
2022-11-09T15:11:51.952Z,10.18
2022-11-09T15:14:33.197Z,10.01
2022-11-09T15:17:13.265Z,10.01
2022-11-09T15:19:51.596Z,9.77
2022-11-09T15:22:50.732Z,9.97
2022-11-09T15:25:24.960Z,9.56
2022-11-09T15:28:13.534Z,9.76
2022-11-09T15:31:01.896Z,9.67
2022-11-09T15:33:29.944Z,9.54
2022-11-09T15:35:59.319Z,9.37
2022-11-09T15:38:41.329Z,9.41
2022-11-09T15:41:19.899Z,9.45
2022-11-09T15:43:46.981Z,9.44
2022-11-09T15:46:17.729Z,9.23
2022-11-09T15:48:49.476Z,9.33
2022-11-09T15:51:16.559Z,9.41
2022-11-09T15:53:43.404Z,9.14
2022-11-09T15:56:19.818Z,9.15
2022-11-09T15:58:49.645Z,9.17
2022-11-09T16:01:16.908Z,8.93
2022-11-09T16:03:43.804Z,8.94
2022-11-09T16:06:11.519Z,8.91
2022-11-09T16:08:38.751Z,8.75
2022-11-09T16:11:09.310Z,9.00
2022-11-09T16:13:42.183Z,8.66
2022-11-09T16:16:10.981Z,8.88
2022-11-09T16:18:38.139Z,8.80
2022-11-09T16:21:12.201Z,8.76
2022-11-09T16:23:39.217Z,8.46
2022-11-09T16:26:10.797Z,8.42
2022-11-09T16:28:39.874Z,8.24
2022-11-09T16:31:07.503Z,8.36
2022-11-09T16:33:34.554Z,8.45
2022-11-09T16:36:05.319Z,8.51
2022-11-09T16:38:39.460Z,8.49
2022-11-09T16:41:06.598Z,8.24
2022-11-09T16:43:33.479Z,8.48
2022-11-09T16:46:02.576Z,8.48
2022-11-09T16:48:30.560Z,8.26
2022-11-09T16:51:00.398Z,8.17
2022-11-09T16:53:27.487Z,8.10
2022-11-09T16:55:57.159Z,8.26
2022-11-09T16:58:24.270Z,8.15
2022-11-09T17:01:10.413Z,8.15
2022-11-09T17:03:38.723Z,8.12
2022-11-09T17:06:07.362Z,8.10
2022-11-09T17:08:36.572Z,8.06
2022-11-09T17:11:07.879Z,8.01
2022-11-09T17:13:37.940Z,8.07
2022-11-09T17:16:10.042Z,8.20
2022-11-09T17:18:42.319Z,8.15
2022-11-09T17:21:10.319Z,8.36
2022-11-09T17:23:40.915Z,8.32
2022-11-09T17:26:08.540Z,8.51
2022-11-09T17:28:40.084Z,8.48
2022-11-09T17:31:20.100Z,8.58
2022-11-09T17:33:49.380Z,8.32
2022-11-09T17:36:35.379Z,8.34
2022-11-09T17:39:07.461Z,8.34
2022-11-09T17:41:42.869Z,8.41
2022-11-09T17:44:13.057Z,8.58
2022-11-09T17:46:43.331Z,8.51
2022-11-09T17:49:10.745Z,8.77
2022-11-09T17:51:37.843Z,8.77
2022-11-09T17:54:04.937Z,8.71
2022-11-09T17:56:32.084Z,8.81
2022-11-09T17:58:58.946Z,9.02
2022-11-09T18:01:25.939Z,8.96
2022-11-09T18:03:53.139Z,9.16
2022-11-09T18:06:22.043Z,9.02
2022-11-09T18:09:10.791Z,8.98
2022-11-09T18:11:36.471Z,8.91
2022-11-09T18:14:03.613Z,9.01
2022-11-09T18:16:33.585Z,9.08
2022-11-09T18:19:02.398Z,8.72
2022-11-09T18:21:29.362Z,9.04
2022-11-09T18:23:56.351Z,8.70
2022-11-09T18:26:23.274Z,8.94
2022-11-09T18:28:50.300Z,8.91
2022-11-09T18:31:17.379Z,8.47
2022-11-09T18:33:44.298Z,8.50
2022-11-09T18:36:13.032Z,8.42
2022-11-09T18:38:40.017Z,8.50
2022-11-09T18:41:27.183Z,8.49
2022-11-09T18:43:58.519Z,8.54
2022-11-09T18:46:30.259Z,8.54
2022-11-09T18:48:57.319Z,8.46
2022-11-09T18:51:25.077Z,8.60
2022-11-09T18:53:51.979Z,8.47
2022-11-09T18:56:23.320Z,8.48
2022-11-09T18:59:00.094Z,8.32
2022-11-09T19:01:29.878Z,8.30
2022-11-09T19:03:59.886Z,8.13
2022-11-09T19:06:27.079Z,8.16
2022-11-09T19:09:12.275Z,8.25
2022-11-09T19:11:39.174Z,8.25
2022-11-09T19:14:08.300Z,8.17
2022-11-09T19:16:37.621Z,8.12
2022-11-09T19:19:04.615Z,8.15
2022-11-09T19:21:36.098Z,7.69
2022-11-09T19:24:05.183Z,7.82
2022-11-09T19:26:32.395Z,7.76
2022-11-09T19:28:59.279Z,7.88
2022-11-09T19:31:28.658Z,7.71
2022-11-09T19:33:58.243Z,7.75
2022-11-09T19:36:31.374Z,7.84
2022-11-09T19:39:00.180Z,7.95
2022-11-09T19:41:27.385Z,7.63
2022-11-09T19:43:56.042Z,7.52
2022-11-09T19:46:23.214Z,7.57
2022-11-09T19:48:53.034Z,7.83
2022-11-09T19:51:20.064Z,7.55
2022-11-09T19:53:54.153Z,7.47
2022-11-09T19:56:26.521Z,7.61
2022-11-09T19:58:59.583Z,7.72
2022-11-09T20:01:26.624Z,7.44
2022-11-09T20:03:57.245Z,7.58
2022-11-09T20:06:24.298Z,7.47
2022-11-09T20:08:52.317Z,7.56
2022-11-09T20:11:39.022Z,7.22
2022-11-09T20:14:07.620Z,7.34
2022-11-09T20:16:34.637Z,7.33
2022-11-09T20:19:02.363Z,7.33
2022-11-09T20:21:29.227Z,7.13
2022-11-09T20:23:56.325Z,7.09
2022-11-09T20:26:23.387Z,7.05
2022-11-09T20:28:52.552Z,7.13
2022-11-09T20:31:19.991Z,7.05
2022-11-09T20:33:46.997Z,6.80
2022-11-09T20:36:14.076Z,6.69
2022-11-09T20:38:41.061Z,6.82
2022-11-09T20:41:08.531Z,6.70
2022-11-09T20:43:36.098Z,6.83
2022-11-09T20:46:04.898Z,6.55
2022-11-09T20:48:52.792Z,6.59
2022-11-09T20:51:21.390Z,6.57
2022-11-09T20:53:49.837Z,6.62
2022-11-09T20:56:17.299Z,6.45
2022-11-09T20:58:44.274Z,6.62
2022-11-09T21:01:16.306Z,6.52
2022-11-09T21:03:43.580Z,6.53
2022-11-09T21:06:11.060Z,6.73
2022-11-09T21:08:38.118Z,6.80
2022-11-09T21:11:06.198Z,6.70
2022-11-09T21:13:33.142Z,7.05
2022-11-09T21:16:06.988Z,6.84
2022-11-09T21:18:34.198Z,7.02
2022-11-09T21:21:08.701Z,7.28
2022-11-09T21:23:54.642Z,7.03
2022-11-09T21:26:40.386Z,7.14
2022-11-09T21:29:30.186Z,7.47
2022-11-09T21:31:57.149Z,7.18
2022-11-09T21:34:24.052Z,7.23
2022-11-09T21:36:51.227Z,7.21
2022-11-09T21:39:18.114Z,7.41
2022-11-09T21:41:45.115Z,7.16
2022-11-09T21:44:12.452Z,7.28
2022-11-09T21:46:43.277Z,7.18
2022-11-09T21:49:11.107Z,7.05
2022-11-09T21:51:38.544Z,7.04
2022-11-09T21:54:05.991Z,7.37
2022-11-09T21:56:35.276Z,7.08
2022-11-09T21:59:02.064Z,7.24
2022-11-09T22:01:29.189Z,7.31
2022-11-09T22:03:56.032Z,6.96
2022-11-09T22:06:25.213Z,7.37
2022-11-09T22:08:52.179Z,7.27
2022-11-09T22:11:42.274Z,7.05
2022-11-09T22:14:35.078Z,7.25
2022-11-09T22:17:02.418Z,7.11
2022-11-09T22:19:47.575Z,7.10
2022-11-09T22:22:15.011Z,7.05
2022-11-09T22:24:42.198Z,7.27
2022-11-09T22:27:09.084Z,7.10
2022-11-09T22:29:35.889Z,7.16
2022-11-09T22:32:02.810Z,7.00
2022-11-09T22:34:29.820Z,7.16
2022-11-09T22:36:56.938Z,7.25
2022-11-09T22:39:23.958Z,6.96
2022-11-09T22:41:50.901Z,7.17
2022-11-09T22:44:18.177Z,7.03
2022-11-09T22:46:48.373Z,7.02
2022-11-09T22:49:15.397Z,7.15
2022-11-09T22:51:45.041Z,7.14
2022-11-09T22:54:12.090Z,7.27
2022-11-09T22:56:38.980Z,7.27
2022-11-09T22:59:05.986Z,6.82
2022-11-09T23:01:33.003Z,7.18
2022-11-09T23:03:59.966Z,7.05
2022-11-09T23:06:29.251Z,7.17
2022-11-09T23:08:56.252Z,7.04
2022-11-09T23:11:25.783Z,7.06
2022-11-09T23:13:53.981Z,6.95
2022-11-09T23:16:21.083Z,7.08
2022-11-09T23:18:56.508Z,6.82
2022-11-09T23:21:36.837Z,6.87
2022-11-09T23:24:05.561Z,6.72
2022-11-09T23:26:33.037Z,6.81
2022-11-09T23:29:00.128Z,6.63
2022-11-09T23:31:29.808Z,6.95
2022-11-09T23:33:57.539Z,6.71
2022-11-09T23:36:25.107Z,6.92
2022-11-09T23:38:52.273Z,6.90
2022-11-09T23:41:19.381Z,6.91
2022-11-09T23:43:49.820Z,6.83
2022-11-09T23:46:19.361Z,6.74
2022-11-09T23:48:46.338Z,6.72
2022-11-09T23:51:13.369Z,6.66
2022-11-09T23:53:43.137Z,6.61
2022-11-09T23:56:11.158Z,6.72
2022-11-09T23:58:38.137Z,6.73
